sensor_id;sensor_type;location;lat;lon;timestamp;pressure;altitude;pressure_sealevel;temperature;humidity
9740;BME280;4909;42.680;26.324;2023-04-03T00:01:40;97912.31;;;12.25;77.56
9740;BME280;4909;42.680;26.324;2023-04-03T00:04:08;97909.47;;;12.28;78.29
9740;BME280;4909;42.680;26.324;2023-04-03T00:06:35;97902.16;;;12.32;78.33
9740;BME280;4909;42.680;26.324;2023-04-03T00:09:02;97897.88;;;12.29;77.58
9740;BME280;4909;42.680;26.324;2023-04-03T00:11:29;97902.63;;;12.24;78.67
9740;BME280;4909;42.680;26.324;2023-04-03T00:13:56;97895.97;;;12.31;78.68
9740;BME280;4909;42.680;26.324;2023-04-03T00:16:22;97888.28;;;12.12;79.11
9740;BME280;4909;42.680;26.324;2023-04-03T00:18:49;97884.38;;;12.18;77.85
9740;BME280;4909;42.680;26.324;2023-04-03T00:21:17;97887.44;;;12.12;78.16
9740;BME280;4909;42.680;26.324;2023-04-03T00:23:44;97880.38;;;12.25;79.11
9740;BME280;4909;42.680;26.324;2023-04-03T00:26:11;97880.66;;;12.20;79.26
9740;BME280;4909;42.680;26.324;2023-04-03T00:28:38;97880.38;;;12.11;78.73
9740;BME280;4909;42.680;26.324;2023-04-03T00:31:05;97883.81;;;12.13;77.12
9740;BME280;4909;42.680;26.324;2023-04-03T00:33:32;97877.06;;;12.22;76.88
9740;BME280;4909;42.680;26.324;2023-04-03T00:35:58;97885.44;;;12.15;76.44
9740;BME280;4909;42.680;26.324;2023-04-03T00:38:26;97884.19;;;12.07;76.78
9740;BME280;4909;42.680;26.324;2023-04-03T00:40:53;97867.22;;;12.09;76.84
9740;BME280;4909;42.680;26.324;2023-04-03T00:43:22;97879.16;;;12.16;77.61
9740;BME280;4909;42.680;26.324;2023-04-03T00:45:51;97882.69;;;12.17;76.49
9740;BME280;4909;42.680;26.324;2023-04-03T00:48:20;97892.66;;;12.28;76.10
9740;BME280;4909;42.680;26.324;2023-04-03T00:50:48;97898.63;;;12.31;75.05
9740;BME280;4909;42.680;26.324;2023-04-03T00:53:19;97877.34;;;12.17;75.54
9740;BME280;4909;42.680;26.324;2023-04-03T00:55:50;97890.06;;;12.26;75.58
9740;BME280;4909;42.680;26.324;2023-04-03T00:58:18;97866.06;;;11.99;75.51
9740;BME280;4909;42.680;26.324;2023-04-03T01:00:50;97910.06;;;12.19;74.12
9740;BME280;4909;42.680;26.324;2023-04-03T01:03:22;97914.22;;;12.23;72.70
9740;BME280;4909;42.680;26.324;2023-04-03T01:05:50;97921.44;;;12.21;72.70
9740;BME280;4909;42.680;26.324;2023-04-03T01:08:17;97917.63;;;12.25;72.81
9740;BME280;4909;42.680;26.324;2023-04-03T01:10:44;97914.59;;;12.31;72.84
9740;BME280;4909;42.680;26.324;2023-04-03T01:13:24;97918.78;;;12.21;72.45
9740;BME280;4909;42.680;26.324;2023-04-03T01:15:51;97907.47;;;12.17;72.17
9740;BME280;4909;42.680;26.324;2023-04-03T01:18:18;97916.59;;;12.28;72.65
9740;BME280;4909;42.680;26.324;2023-04-03T01:24:12;97908.41;;;12.31;73.54
9740;BME280;4909;42.680;26.324;2023-04-03T01:26:42;97920.38;;;12.38;72.35
9740;BME280;4909;42.680;26.324;2023-04-03T01:29:10;97923.06;;;12.38;73.59
9740;BME280;4909;42.680;26.324;2023-04-03T01:31:52;97918.09;;;12.32;74.56
9740;BME280;4909;42.680;26.324;2023-04-03T01:34:19;97928.75;;;12.17;74.26
9740;BME280;4909;42.680;26.324;2023-04-03T01:36:46;97929.25;;;12.24;74.51
9740;BME280;4909;42.680;26.324;2023-04-03T01:39:14;97935.31;;;12.12;73.77
9740;BME280;4909;42.680;26.324;2023-04-03T01:41:40;97938.75;;;12.00;74.28
9740;BME280;4909;42.680;26.324;2023-04-03T01:44:07;97935.13;;;12.15;75.12
9740;BME280;4909;42.680;26.324;2023-04-03T01:46:34;97935.03;;;12.16;75.50
9740;BME280;4909;42.680;26.324;2023-04-03T01:49:04;97897.88;;;12.01;75.44
9740;BME280;4909;42.680;26.324;2023-04-03T01:51:31;97927.31;;;12.26;75.08
9740;BME280;4909;42.680;26.324;2023-04-03T01:53:58;97913.28;;;12.24;74.56
9740;BME280;4909;42.680;26.324;2023-04-03T01:56:25;97913.06;;;12.27;76.26
9740;BME280;4909;42.680;26.324;2023-04-03T01:58:52;97916.13;;;12.21;76.18
9740;BME280;4909;42.680;26.324;2023-04-03T02:01:18;97906.13;;;12.10;78.52
9740;BME280;4909;42.680;26.324;2023-04-03T02:03:46;97914.97;;;11.97;78.44
9740;BME280;4909;42.680;26.324;2023-04-03T02:06:14;97919.44;;;11.96;78.79
9740;BME280;4909;42.680;26.324;2023-04-03T02:08:41;97925.50;;;11.84;79.43
9740;BME280;4909;42.680;26.324;2023-04-03T02:11:08;97924.97;;;11.63;79.96
9740;BME280;4909;42.680;26.324;2023-04-03T02:13:34;97917.63;;;11.53;80.11
9740;BME280;4909;42.680;26.324;2023-04-03T02:16:06;97919.53;;;11.51;80.65
9740;BME280;4909;42.680;26.324;2023-04-03T02:18:33;97924.75;;;11.52;79.83
9740;BME280;4909;42.680;26.324;2023-04-03T02:21:00;97920.41;;;11.51;79.39
9740;BME280;4909;42.680;26.324;2023-04-03T02:23:28;97920.41;;;11.51;78.67
9740;BME280;4909;42.680;26.324;2023-04-03T02:26:03;97905.16;;;11.39;78.79
9740;BME280;4909;42.680;26.324;2023-04-03T02:28:31;97921.16;;;11.53;78.58
9740;BME280;4909;42.680;26.324;2023-04-03T02:30:57;97934.38;;;11.69;78.29
9740;BME280;4909;42.680;26.324;2023-04-03T02:33:25;97927.47;;;11.66;78.79
9740;BME280;4909;42.680;26.324;2023-04-03T02:35:53;97934.94;;;11.60;78.75
9740;BME280;4909;42.680;26.324;2023-04-03T02:38:20;97939.88;;;11.66;78.42
9740;BME280;4909;42.680;26.324;2023-04-03T02:40:48;97940.25;;;11.60;79.45
9740;BME280;4909;42.680;26.324;2023-04-03T02:43:15;97938.06;;;11.22;81.44
9740;BME280;4909;42.680;26.324;2023-04-03T02:45:42;97904.50;;;11.06;81.36
9740;BME280;4909;42.680;26.324;2023-04-03T02:48:09;97933.69;;;11.21;80.62
9740;BME280;4909;42.680;26.324;2023-04-03T02:50:35;97925.81;;;11.04;82.17
9740;BME280;4909;42.680;26.324;2023-04-03T02:53:02;97927.53;;;11.05;82.00
9740;BME280;4909;42.680;26.324;2023-04-03T02:55:29;97921.88;;;11.11;81.66
9740;BME280;4909;42.680;26.324;2023-04-03T02:57:57;97933.09;;;11.16;82.34
9740;BME280;4909;42.680;26.324;2023-04-03T03:00:24;97926.66;;;11.20;82.53
9740;BME280;4909;42.680;26.324;2023-04-03T03:02:50;97933.06;;;11.32;81.70
9740;BME280;4909;42.680;26.324;2023-04-03T03:05:17;97928.06;;;11.42;80.34
9740;BME280;4909;42.680;26.324;2023-04-03T03:07:44;97924.69;;;11.38;81.26
9740;BME280;4909;42.680;26.324;2023-04-03T03:10:11;97917.41;;;11.27;80.97
9740;BME280;4909;42.680;26.324;2023-04-03T03:12:38;97927.56;;;11.35;81.63
9740;BME280;4909;42.680;26.324;2023-04-03T03:15:07;97931.16;;;11.34;80.65
9740;BME280;4909;42.680;26.324;2023-04-03T03:17:34;97923.84;;;11.38;80.63
9740;BME280;4909;42.680;26.324;2023-04-03T03:20:01;97920.44;;;11.36;80.17
9740;BME280;4909;42.680;26.324;2023-04-03T03:22:29;97914.19;;;11.37;80.51
9740;BME280;4909;42.680;26.324;2023-04-03T03:24:55;97920.44;;;11.36;81.12
9740;BME280;4909;42.680;26.324;2023-04-03T03:27:22;97931.16;;;11.34;80.84
9740;BME280;4909;42.680;26.324;2023-04-03T03:29:49;97928.91;;;11.42;79.89
9740;BME280;4909;42.680;26.324;2023-04-03T03:32:17;97916.56;;;11.41;79.80
9740;BME280;4909;42.680;26.324;2023-04-03T03:34:44;97913.09;;;11.55;79.73
9740;BME280;4909;42.680;26.324;2023-04-03T03:37:11;97931.03;;;11.51;80.11
9740;BME280;4909;42.680;26.324;2023-04-03T03:39:38;97932.66;;;11.38;80.59
9740;BME280;4909;42.680;26.324;2023-04-03T03:42:05;97924.44;;;11.43;79.91
9740;BME280;4909;42.680;26.324;2023-04-03T03:44:31;97938.88;;;11.53;77.82
9740;BME280;4909;42.680;26.324;2023-04-03T03:46:58;97912.28;;;11.39;77.44
9740;BME280;4909;42.680;26.324;2023-04-03T03:49:26;97935.91;;;11.43;79.56
9740;BME280;4909;42.680;26.324;2023-04-03T03:51:53;97923.41;;;11.45;78.21
9740;BME280;4909;42.680;26.324;2023-04-03T03:54:20;97938.22;;;11.49;77.92
9740;BME280;4909;42.680;26.324;2023-04-03T03:56:47;97936.13;;;11.40;78.20
9740;BME280;4909;42.680;26.324;2023-04-03T03:59:14;97943.63;;;11.48;77.77
9740;BME280;4909;42.680;26.324;2023-04-03T04:01:40;97925.44;;;11.26;78.18
9740;BME280;4909;42.680;26.324;2023-04-03T04:04:07;97938.41;;;11.46;77.01
9740;BME280;4909;42.680;26.324;2023-04-03T04:06:35;97932.31;;;11.44;77.63
9740;BME280;4909;42.680;26.324;2023-04-03T04:09:02;97939.34;;;11.45;77.94
9740;BME280;4909;42.680;26.324;2023-04-03T04:11:29;97935.28;;;11.54;78.50
9740;BME280;4909;42.680;26.324;2023-04-03T04:13:57;97936.53;;;11.62;77.67
9740;BME280;4909;42.680;26.324;2023-04-03T04:16:24;97929.75;;;11.72;78.02
9740;BME280;4909;42.680;26.324;2023-04-03T04:18:51;97921.28;;;11.66;78.72
9740;BME280;4909;42.680;26.324;2023-04-03T04:21:18;97923.09;;;11.65;77.36
9740;BME280;4909;42.680;26.324;2023-04-03T04:23:46;97907.13;;;11.65;76.32
9740;BME280;4909;42.680;26.324;2023-04-03T04:26:13;97904.81;;;11.45;78.91
9740;BME280;4909;42.680;26.324;2023-04-03T04:28:39;97920.00;;;11.57;77.63
9740;BME280;4909;42.680;26.324;2023-04-03T04:31:06;97916.06;;;11.64;76.67
9740;BME280;4909;42.680;26.324;2023-04-03T04:33:33;97921.41;;;11.79;76.22
9740;BME280;4909;42.680;26.324;2023-04-03T04:36:00;97921.94;;;11.69;77.26
9740;BME280;4909;42.680;26.324;2023-04-03T04:38:27;97924.94;;;11.79;76.48
9740;BME280;4909;42.680;26.324;2023-04-03T04:40:55;97919.53;;;11.95;75.75
9740;BME280;4909;42.680;26.324;2023-04-03T04:43:21;97929.69;;;12.02;74.07
9740;BME280;4909;42.680;26.324;2023-04-03T04:45:48;97912.22;;;11.98;74.34
9740;BME280;4909;42.680;26.324;2023-04-03T04:48:15;97932.44;;;12.01;71.91
9740;BME280;4909;42.680;26.324;2023-04-03T04:50:42;97929.41;;;12.21;70.69
9740;BME280;4909;42.680;26.324;2023-04-03T04:53:09;97929.31;;;12.23;70.25
9740;BME280;4909;42.680;26.324;2023-04-03T04:55:35;97934.44;;;12.26;69.56
9740;BME280;4909;42.680;26.324;2023-04-03T04:58:04;97935.13;;;12.29;69.28
9740;BME280;4909;42.680;26.324;2023-04-03T05:00:30;97928.72;;;12.60;69.65
9740;BME280;4909;42.680;26.324;2023-04-03T05:02:57;97930.66;;;12.85;68.13
9740;BME280;4909;42.680;26.324;2023-04-03T05:05:24;97930.94;;;13.07;66.31
9740;BME280;4909;42.680;26.324;2023-04-03T05:07:51;97939.13;;;13.18;65.81
9740;BME280;4909;42.680;26.324;2023-04-03T05:10:17;97928.94;;;13.25;63.75
9740;BME280;4909;42.680;26.324;2023-04-03T05:12:44;97947.06;;;13.32;63.11
9740;BME280;4909;42.680;26.324;2023-04-03T05:15:12;97939.78;;;13.48;62.79
9740;BME280;4909;42.680;26.324;2023-04-03T05:17:39;97955.69;;;13.75;62.52
9740;BME280;4909;42.680;26.324;2023-04-03T05:20:07;97952.75;;;13.92;63.89
9740;BME280;4909;42.680;26.324;2023-04-03T05:22:34;97952.75;;;14.05;61.25
9740;BME280;4909;42.680;26.324;2023-04-03T05:25:00;97965.25;;;14.30;60.39
9740;BME280;4909;42.680;26.324;2023-04-03T05:27:27;97978.94;;;14.51;60.79
9740;BME280;4909;42.680;26.324;2023-04-03T05:29:54;97970.22;;;14.72;58.91
9740;BME280;4909;42.680;26.324;2023-04-03T05:32:23;97985.47;;;14.96;55.63
9740;BME280;4909;42.680;26.324;2023-04-03T05:34:51;97983.03;;;15.16;55.42
9740;BME280;4909;42.680;26.324;2023-04-03T05:37:18;97995.69;;;15.38;55.20
9740;BME280;4909;42.680;26.324;2023-04-03T05:39:45;97999.19;;;15.51;55.57
9740;BME280;4909;42.680;26.324;2023-04-03T05:42:12;98007.63;;;14.72;62.12
9740;BME280;4909;42.680;26.324;2023-04-03T05:44:39;98008.09;;;14.66;63.05
9740;BME280;4909;42.680;26.324;2023-04-03T05:47:06;98013.59;;;14.89;62.09
9740;BME280;4909;42.680;26.324;2023-04-03T05:49:34;97992.28;;;14.51;63.69
9740;BME280;4909;42.680;26.324;2023-04-03T05:52:01;98012.34;;;14.69;66.69
9740;BME280;4909;42.680;26.324;2023-04-03T05:54:29;97994.44;;;14.46;68.13
9740;BME280;4909;42.680;26.324;2023-04-03T05:56:56;98013.88;;;15.09;65.96
9740;BME280;4909;42.680;26.324;2023-04-03T05:59:23;98023.16;;;15.53;65.51
9740;BME280;4909;42.680;26.324;2023-04-03T06:01:49;98025.84;;;15.40;66.37
9740;BME280;4909;42.680;26.324;2023-04-03T06:04:16;98027.25;;;15.09;67.51
9740;BME280;4909;42.680;26.324;2023-04-03T06:06:47;98018.28;;;13.97;70.26
9740;BME280;4909;42.680;26.324;2023-04-03T06:09:15;98012.53;;;13.63;72.63
9740;BME280;4909;42.680;26.324;2023-04-03T06:11:42;98009.19;;;13.99;71.39
9740;BME280;4909;42.680;26.324;2023-04-03T06:14:09;97991.69;;;13.95;68.74
9740;BME280;4909;42.680;26.324;2023-04-03T06:16:37;98013.16;;;13.93;68.82
9740;BME280;4909;42.680;26.324;2023-04-03T06:19:04;98012.31;;;14.82;65.90
9740;BME280;4909;42.680;26.324;2023-04-03T06:21:31;98013.91;;;15.33;63.72
9740;BME280;4909;42.680;26.324;2023-04-03T06:24:00;98022.16;;;16.01;61.94
9740;BME280;4909;42.680;26.324;2023-04-03T06:26:27;98034.09;;;16.08;60.24
9740;BME280;4909;42.680;26.324;2023-04-03T06:28:54;98033.66;;;16.26;60.53
9740;BME280;4909;42.680;26.324;2023-04-03T06:31:21;98020.53;;;16.56;59.43
9740;BME280;4909;42.680;26.324;2023-04-03T06:33:48;98038.44;;;17.56;56.24
9740;BME280;4909;42.680;26.324;2023-04-03T06:36:15;98041.47;;;17.62;55.45
9740;BME280;4909;42.680;26.324;2023-04-03T06:38:45;98037.94;;;17.51;54.96
9740;BME280;4909;42.680;26.324;2023-04-03T06:41:14;98041.44;;;17.73;53.58
9740;BME280;4909;42.680;26.324;2023-04-03T06:43:41;98042.78;;;17.79;53.66
9740;BME280;4909;42.680;26.324;2023-04-03T06:46:13;98028.41;;;17.69;54.67
9740;BME280;4909;42.680;26.324;2023-04-03T06:48:40;98040.63;;;17.51;53.22
9740;BME280;4909;42.680;26.324;2023-04-03T06:51:10;98032.09;;;17.46;53.50
9740;BME280;4909;42.680;26.324;2023-04-03T06:53:37;98052.66;;;17.78;53.05
9740;BME280;4909;42.680;26.324;2023-04-03T06:56:05;98044.75;;;18.30;51.47
9740;BME280;4909;42.680;26.324;2023-04-03T06:58:33;98050.84;;;19.43;48.08
9740;BME280;4909;42.680;26.324;2023-04-03T07:01:00;98051.25;;;19.79;46.92
9740;BME280;4909;42.680;26.324;2023-04-03T07:03:27;98055.38;;;20.21;46.03
9740;BME280;4909;42.680;26.324;2023-04-03T07:05:54;98057.78;;;20.44;44.72
9740;BME280;4909;42.680;26.324;2023-04-03T07:08:20;98052.25;;;20.64;43.80
9740;BME280;4909;42.680;26.324;2023-04-03T07:10:48;98042.34;;;19.98;45.80
9740;BME280;4909;42.680;26.324;2023-04-03T07:13:15;98051.22;;;19.60;47.10
9740;BME280;4909;42.680;26.324;2023-04-03T07:15:43;98031.09;;;19.64;47.22
9740;BME280;4909;42.680;26.324;2023-04-03T07:18:10;98045.72;;;19.80;47.09
9740;BME280;4909;42.680;26.324;2023-04-03T07:20:38;98042.00;;;19.62;47.51
9740;BME280;4909;42.680;26.324;2023-04-03T07:23:05;98017.63;;;19.14;48.30
9740;BME280;4909;42.680;26.324;2023-04-03T07:25:32;98023.09;;;19.03;48.27
9740;BME280;4909;42.680;26.324;2023-04-03T07:27:59;98038.00;;;19.47;46.94
9740;BME280;4909;42.680;26.324;2023-04-03T07:30:27;98038.19;;;19.55;45.73
9740;BME280;4909;42.680;26.324;2023-04-03T07:32:55;98037.53;;;19.42;46.64
9740;BME280;4909;42.680;26.324;2023-04-03T07:35:22;98040.47;;;19.60;46.58
9740;BME280;4909;42.680;26.324;2023-04-03T07:37:49;98033.25;;;19.70;46.31
9740;BME280;4909;42.680;26.324;2023-04-03T07:40:16;98034.50;;;19.75;42.71
9740;BME280;4909;42.680;26.324;2023-04-03T07:42:43;98042.56;;;19.56;42.69
9740;BME280;4909;42.680;26.324;2023-04-03T07:45:10;97984.91;;;19.09;44.14
9740;BME280;4909;42.680;26.324;2023-04-03T07:47:37;98039.63;;;19.29;44.74
9740;BME280;4909;42.680;26.324;2023-04-03T07:50:06;98042.47;;;19.37;44.58
9740;BME280;4909;42.680;26.324;2023-04-03T07:52:33;98045.72;;;19.21;43.50
9740;BME280;4909;42.680;26.324;2023-04-03T07:55:00;98048.47;;;19.10;44.07
9740;BME280;4909;42.680;26.324;2023-04-03T07:57:27;98052.31;;;19.17;44.42
9740;BME280;4909;42.680;26.324;2023-04-03T07:59:54;98048.16;;;19.43;44.02
9740;BME280;4909;42.680;26.324;2023-04-03T08:02:21;98049.63;;;19.47;43.42
9740;BME280;4909;42.680;26.324;2023-04-03T08:04:48;98044.13;;;19.49;41.78
9740;BME280;4909;42.680;26.324;2023-04-03T08:07:16;98049.97;;;19.33;42.28
9740;BME280;4909;42.680;26.324;2023-04-03T08:09:43;98060.25;;;19.19;43.81
9740;BME280;4909;42.680;26.324;2023-04-03T08:12:10;98056.19;;;18.94;44.59
9740;BME280;4909;42.680;26.324;2023-04-03T08:14:37;98053.28;;;18.55;45.96
9740;BME280;4909;42.680;26.324;2023-04-03T08:17:04;98058.19;;;18.30;46.41
9740;BME280;4909;42.680;26.324;2023-04-03T08:19:34;98057.44;;;18.07;47.69
9740;BME280;4909;42.680;26.324;2023-04-03T08:22:01;98058.09;;;18.41;48.15
9740;BME280;4909;42.680;26.324;2023-04-03T08:24:30;98055.38;;;18.73;49.14
9740;BME280;4909;42.680;26.324;2023-04-03T08:26:57;98052.13;;;18.99;50.21
9740;BME280;4909;42.680;26.324;2023-04-03T08:29:24;98047.28;;;18.63;53.30
9740;BME280;4909;42.680;26.324;2023-04-03T08:31:51;98043.72;;;17.89;55.49
9740;BME280;4909;42.680;26.324;2023-04-03T08:34:18;98040.00;;;17.58;56.37
9740;BME280;4909;42.680;26.324;2023-04-03T08:36:45;98047.75;;;17.84;55.16
9740;BME280;4909;42.680;26.324;2023-04-03T08:39:12;98048.78;;;18.03;56.66
9740;BME280;4909;42.680;26.324;2023-04-03T08:41:42;98043.34;;;17.39;59.16
9740;BME280;4909;42.680;26.324;2023-04-03T08:44:17;98039.78;;;17.61;59.77
9740;BME280;4909;42.680;26.324;2023-04-03T08:46:58;98039.47;;;17.21;60.54
9740;BME280;4909;42.680;26.324;2023-04-03T08:49:31;98028.84;;;17.20;61.62
9740;BME280;4909;42.680;26.324;2023-04-03T08:52:02;98036.72;;;17.66;60.02
9740;BME280;4909;42.680;26.324;2023-04-03T08:54:33;98043.03;;;17.76;58.75
9740;BME280;4909;42.680;26.324;2023-04-03T08:57:05;98032.50;;;17.19;58.37
9740;BME280;4909;42.680;26.324;2023-04-03T08:59:34;98036.81;;;17.75;57.51
9740;BME280;4909;42.680;26.324;2023-04-03T09:02:21;98032.16;;;18.30;56.36
9740;BME280;4909;42.680;26.324;2023-04-03T09:04:50;98035.22;;;18.57;56.88
9740;BME280;4909;42.680;26.324;2023-04-03T09:07:25;98031.09;;;18.84;54.05
9740;BME280;4909;42.680;26.324;2023-04-03T09:09:55;98030.56;;;19.70;50.73
9740;BME280;4909;42.680;26.324;2023-04-03T09:12:29;98036.53;;;20.21;47.21
9740;BME280;4909;42.680;26.324;2023-04-03T09:15:02;98021.50;;;20.38;47.03
9740;BME280;4909;42.680;26.324;2023-04-03T09:17:41;98029.72;;;19.79;47.91
9740;BME280;4909;42.680;26.324;2023-04-03T09:20:21;98021.63;;;20.27;48.76
9740;BME280;4909;42.680;26.324;2023-04-03T09:22:51;98017.97;;;20.37;47.15
9740;BME280;4909;42.680;26.324;2023-04-03T09:25:22;98019.81;;;20.37;48.51
9740;BME280;4909;42.680;26.324;2023-04-03T09:27:51;98013.22;;;20.59;47.19
9740;BME280;4909;42.680;26.324;2023-04-03T09:30:19;98003.28;;;20.96;45.28
9740;BME280;4909;42.680;26.324;2023-04-03T09:32:48;98011.22;;;21.07;44.60
9740;BME280;4909;42.680;26.324;2023-04-03T09:35:19;98016.34;;;20.54;45.37
9740;BME280;4909;42.680;26.324;2023-04-03T09:37:48;98016.69;;;20.32;46.48
9740;BME280;4909;42.680;26.324;2023-04-03T09:40:35;98000.63;;;20.50;46.51
9740;BME280;4909;42.680;26.324;2023-04-03T09:43:27;98012.13;;;20.52;47.97
9740;BME280;4909;42.680;26.324;2023-04-03T09:45:55;98005.00;;;20.60;48.50
9740;BME280;4909;42.680;26.324;2023-04-03T09:48:24;98010.00;;;20.26;48.83
9740;BME280;4909;42.680;26.324;2023-04-03T09:51:01;97999.50;;;19.94;47.98
9740;BME280;4909;42.680;26.324;2023-04-03T09:53:34;97998.09;;;20.10;47.75
9740;BME280;4909;42.680;26.324;2023-04-03T09:56:04;98005.06;;;19.74;46.04
9740;BME280;4909;42.680;26.324;2023-04-03T09:58:46;98002.59;;;19.61;46.03
9740;BME280;4909;42.680;26.324;2023-04-03T10:01:23;98000.09;;;19.79;45.49
9740;BME280;4909;42.680;26.324;2023-04-03T10:04:04;97992.13;;;19.08;46.38
9740;BME280;4909;42.680;26.324;2023-04-03T10:06:32;98000.28;;;19.37;46.27
9740;BME280;4909;42.680;26.324;2023-04-03T10:09:05;97994.69;;;19.50;44.85
9740;BME280;4909;42.680;26.324;2023-04-03T10:11:33;97980.31;;;19.30;45.42
9740;BME280;4909;42.680;26.324;2023-04-03T10:14:02;97991.53;;;18.95;45.96
9740;BME280;4909;42.680;26.324;2023-04-03T10:16:35;97968.63;;;18.50;47.10
9740;BME280;4909;42.680;26.324;2023-04-03T10:19:30;97988.78;;;18.55;47.84
9740;BME280;4909;42.680;26.324;2023-04-03T10:22:02;97987.84;;;18.45;48.10
9740;BME280;4909;42.680;26.324;2023-04-03T10:24:36;97983.63;;;18.63;47.82
9740;BME280;4909;42.680;26.324;2023-04-03T10:27:10;97989.09;;;18.41;48.60
9740;BME280;4909;42.680;26.324;2023-04-03T10:29:42;97989.78;;;18.34;48.78
9740;BME280;4909;42.680;26.324;2023-04-03T10:32:26;97981.16;;;18.40;49.44
9740;BME280;4909;42.680;26.324;2023-04-03T10:35:00;97990.66;;;18.64;48.58
9740;BME280;4909;42.680;26.324;2023-04-03T10:37:35;97985.66;;;18.81;48.26
9740;BME280;4909;42.680;26.324;2023-04-03T10:40:18;97993.69;;;19.01;48.34
9740;BME280;4909;42.680;26.324;2023-04-03T10:42:50;97993.81;;;19.00;48.08
9740;BME280;4909;42.680;26.324;2023-04-03T10:45:26;97987.91;;;19.16;48.25
9740;BME280;4909;42.680;26.324;2023-04-03T10:48:02;97990.09;;;19.31;48.75
9740;BME280;4909;42.680;26.324;2023-04-03T10:50:41;97989.72;;;19.05;49.50
9740;BME280;4909;42.680;26.324;2023-04-03T10:53:16;97974.69;;;18.63;45.64
9740;BME280;4909;42.680;26.324;2023-04-03T10:55:51;97983.50;;;18.23;44.13
9740;BME280;4909;42.680;26.324;2023-04-03T10:58:26;97980.59;;;18.15;45.13
9740;BME280;4909;42.680;26.324;2023-04-03T11:01:00;97967.63;;;18.20;44.68
9740;BME280;4909;42.680;26.324;2023-04-03T11:03:31;97979.28;;;17.89;45.14
9740;BME280;4909;42.680;26.324;2023-04-03T11:06:02;97976.47;;;18.11;45.31
9740;BME280;4909;42.680;26.324;2023-04-03T11:08:35;97947.34;;;17.43;44.72
9740;BME280;4909;42.680;26.324;2023-04-03T11:11:08;97961.31;;;17.58;45.64
9740;BME280;4909;42.680;26.324;2023-04-03T11:13:40;97959.50;;;17.58;46.79
9740;BME280;4909;42.680;26.324;2023-04-03T11:16:15;97945.03;;;17.50;47.44
9740;BME280;4909;42.680;26.324;2023-04-03T11:18:48;97934.63;;;17.56;47.82
9740;BME280;4909;42.680;26.324;2023-04-03T11:21:19;97928.41;;;17.56;47.90
9740;BME280;4909;42.680;26.324;2023-04-03T11:23:48;97926.09;;;17.62;48.05
9740;BME280;4909;42.680;26.324;2023-04-03T11:26:17;97904.63;;;17.83;47.49
9740;BME280;4909;42.680;26.324;2023-04-03T11:28:44;97921.78;;;17.92;47.56
9740;BME280;4909;42.680;26.324;2023-04-03T11:31:36;97925.06;;;17.95;48.06
9740;BME280;4909;42.680;26.324;2023-04-03T11:34:19;97934.44;;;17.80;48.83
9740;BME280;4909;42.680;26.324;2023-04-03T11:36:52;97925.84;;;17.54;49.75
9740;BME280;4909;42.680;26.324;2023-04-03T11:39:23;97919.56;;;17.44;50.90
9740;BME280;4909;42.680;26.324;2023-04-03T11:41:51;97926.47;;;17.15;53.08
9740;BME280;4909;42.680;26.324;2023-04-03T11:44:42;97936.03;;;17.08;54.05
9740;BME280;4909;42.680;26.324;2023-04-03T11:47:11;97929.31;;;17.13;54.10
9740;BME280;4909;42.680;26.324;2023-04-03T11:49:55;97943.03;;;17.31;53.55
9740;BME280;4909;42.680;26.324;2023-04-03T11:55:44;97920.13;;;16.73;55.08
9740;BME280;4909;42.680;26.324;2023-04-03T11:58:14;97940.69;;;16.83;55.10
9740;BME280;4909;42.680;26.324;2023-04-03T12:00:56;97932.41;;;16.86;55.50
9740;BME280;4909;42.680;26.324;2023-04-03T12:09:24;97932.88;;;17.03;54.51
9740;BME280;4909;42.680;26.324;2023-04-03T12:11:52;97917.66;;;16.81;55.49
9740;BME280;4909;42.680;26.324;2023-04-03T12:14:22;97921.66;;;16.98;56.10
9740;BME280;4909;42.680;26.324;2023-04-03T12:16:49;97918.19;;;16.64;56.75
9740;BME280;4909;42.680;26.324;2023-04-03T12:19:33;97926.78;;;16.56;58.26
9740;BME280;4909;42.680;26.324;2023-04-03T12:22:06;97900.75;;;16.25;58.96
9740;BME280;4909;42.680;26.324;2023-04-03T12:24:34;97918.88;;;16.66;60.21
9740;BME280;4909;42.680;26.324;2023-04-03T12:27:07;97916.69;;;16.37;62.63
9740;BME280;4909;42.680;26.324;2023-04-03T12:29:38;97922.69;;;16.63;60.83
9740;BME280;4909;42.680;26.324;2023-04-03T12:32:17;97900.88;;;16.68;62.93
9740;BME280;4909;42.680;26.324;2023-04-03T12:34:58;97915.94;;;16.91;63.29
9740;BME280;4909;42.680;26.324;2023-04-03T12:37:40;97919.75;;;16.66;61.68
9740;BME280;4909;42.680;26.324;2023-04-03T12:40:16;97926.66;;;16.58;62.39
9740;BME280;4909;42.680;26.324;2023-04-03T12:43:05;97894.63;;;16.56;63.94
9740;BME280;4909;42.680;26.324;2023-04-03T12:45:42;97903.03;;;16.51;64.35
9740;BME280;4909;42.680;26.324;2023-04-03T12:48:15;97904.38;;;16.46;64.30
9740;BME280;4909;42.680;26.324;2023-04-03T12:50:46;97908.53;;;16.61;64.38
9740;BME280;4909;42.680;26.324;2023-04-03T12:53:16;97912.44;;;16.35;63.16
9740;BME280;4909;42.680;26.324;2023-04-03T12:55:44;97915.34;;;16.09;61.58
9740;BME280;4909;42.680;26.324;2023-04-03T12:58:16;97919.84;;;16.20;59.50
9740;BME280;4909;42.680;26.324;2023-04-03T13:00:59;97919.09;;;15.96;60.08
9740;BME280;4909;42.680;26.324;2023-04-03T13:03:27;97888.75;;;15.84;60.67
9740;BME280;4909;42.680;26.324;2023-04-03T13:05:59;97922.25;;;16.12;60.37
9740;BME280;4909;42.680;26.324;2023-04-03T13:08:27;97921.44;;;16.12;60.93
9740;BME280;4909;42.680;26.324;2023-04-03T13:10:59;97915.34;;;16.32;61.31
9740;BME280;4909;42.680;26.324;2023-04-03T13:13:28;97881.50;;;15.97;63.16
9740;BME280;4909;42.680;26.324;2023-04-03T13:15:56;97927.25;;;16.05;65.60
9740;BME280;4909;42.680;26.324;2023-04-03T13:18:31;97904.97;;;15.83;66.51
9740;BME280;4909;42.680;26.324;2023-04-03T13:21:02;97903.47;;;15.68;69.02
9740;BME280;4909;42.680;26.324;2023-04-03T13:23:30;97914.06;;;15.80;69.54
9740;BME280;4909;42.680;26.324;2023-04-03T13:25:58;97900.44;;;15.72;68.34
9740;BME280;4909;42.680;26.324;2023-04-03T13:28:29;97904.31;;;15.79;70.38
9740;BME280;4909;42.680;26.324;2023-04-03T13:31:01;97898.81;;;15.58;70.58
9740;BME280;4909;42.680;26.324;2023-04-03T13:33:32;97876.94;;;15.41;69.56
9740;BME280;4909;42.680;26.324;2023-04-03T13:36:06;97883.25;;;15.40;70.28